Time;durP1;ratioP1;P1;durP2;ratioP2;P2;SDS_P1;SDS_P2;PMS_P1;PMS_P2;Temp;Humidity;BMP_temperature;BMP_pressure;BME280_temperature;BME280_humidity;BME280_pressure;Samples;Min_cycle;Max_cycle;Signal;HPM_P1;HPM_P2
2022/03/26 00:01:24;;;;;;;26.92;20.92;;;;;;;-148.33;100.00;56587.81;5050069;28;20049;-60
2022/03/26 00:03:49;;;;;;;27.77;21.83;;;;;;;-148.33;100.00;56587.81;5047879;28;20431;-59
2022/03/26 00:06:15;;;;;;;30.20;22.00;;;;;;;-148.33;100.00;56587.81;5047960;28;20025;-60
2022/03/26 00:08:40;;;;;;;25.02;20.15;;;;;;;-148.33;100.00;56587.81;5047367;28;20028;-59
2022/03/26 00:11:05;;;;;;;26.92;21.23;;;;;;;-148.33;100.00;56587.81;5047457;28;20059;-59
2022/03/26 00:13:30;;;;;;;29.80;21.08;;;;;;;-148.33;100.00;56587.81;5047723;28;20024;-59
2022/03/26 00:15:56;;;;;;;28.17;21.92;;;;;;;-148.33;100.00;56587.81;5047095;28;20052;-59
2022/03/26 00:18:21;;;;;;;30.70;21.88;;;;;;;-148.33;100.00;56587.81;5047597;28;20048;-58
2022/03/26 00:20:46;;;;;;;28.90;21.83;;;;;;;-148.33;100.00;56587.81;5047000;28;20024;-59
2022/03/26 00:23:12;;;;;;;32.08;23.88;;;;;;;-148.33;100.00;56587.81;5047123;28;20025;-59
2022/03/26 00:25:37;;;;;;;28.08;22.42;;;;;;;-148.33;100.00;56587.81;5047574;28;20104;-59
2022/03/26 00:28:03;;;;;;;32.33;22.23;;;;;;;-148.33;100.00;56587.81;5047630;28;20029;-59
2022/03/26 00:30:28;;;;;;;29.55;22.52;;;;;;;-148.33;100.00;56587.81;5047686;28;20044;-59
2022/03/26 00:32:54;;;;;;;30.83;22.10;;;;;;;-148.33;100.00;56587.81;5046436;28;20552;-58
2022/03/26 00:35:19;;;;;;;32.30;23.75;;;;;;;-148.33;100.00;56587.81;5049982;28;20028;-59
2022/03/26 00:37:45;;;;;;;28.63;22.10;;;;;;;-148.33;100.00;56587.81;5054004;28;20032;-59
2022/03/26 00:40:11;;;;;;;29.35;23.38;;;;;;;-148.33;100.00;56587.81;5067039;28;20039;-59
2022/03/26 00:42:36;;;;;;;31.40;22.45;;;;;;;-148.33;100.00;56587.81;5067383;28;20523;-57
2022/03/26 00:45:02;;;;;;;27.60;22.25;;;;;;;-148.33;100.00;56587.81;5067296;28;20027;-59
2022/03/26 00:47:28;;;;;;;29.58;21.48;;;;;;;-148.33;100.00;56587.81;5066634;28;20025;-59
2022/03/26 00:49:54;;;;;;;31.60;23.20;;;;;;;-148.33;100.00;56587.81;5067352;28;20111;-59
2022/03/26 00:52:20;;;;;;;29.35;21.20;;;;;;;-148.33;100.00;56587.81;5067014;28;20089;-59
2022/03/26 00:54:45;;;;;;;35.60;21.30;;;;;;;-148.33;100.00;56587.81;5066961;28;20024;-59
2022/03/26 00:57:10;;;;;;;34.47;23.45;;;;;;;-148.33;100.00;56587.81;5067222;28;20079;-59
2022/03/26 00:59:35;;;;;;;28.13;20.63;;;;;;;-148.33;100.00;56587.81;5066561;28;20035;-58
2022/03/26 01:02:01;;;;;;;31.02;21.77;;;;;;;-148.33;100.00;56587.81;5066533;28;20060;-58
2022/03/26 01:04:26;;;;;;;35.53;21.27;;;;;;;-148.33;100.00;56587.81;5067765;28;20028;-59
2022/03/26 01:06:51;;;;;;;32.05;22.50;;;;;;;-148.33;100.00;56587.81;5070557;28;20238;-59
2022/03/26 01:09:17;;;;;;;32.75;22.77;;;;;;;-148.33;100.00;56587.81;5070467;28;20543;-59
2022/03/26 01:11:42;;;;;;;30.35;22.17;;;;;;;-148.33;100.00;56587.81;5070429;28;20016;-59
2022/03/26 01:14:07;;;;;;;31.45;21.85;;;;;;;-148.33;100.00;56587.81;5069925;28;20423;-59
2022/03/26 01:16:33;;;;;;;31.75;23.80;;;;;;;-148.33;100.00;56587.81;5069911;28;20476;-59
2022/03/26 01:18:58;;;;;;;29.02;22.65;;;;;;;-148.33;100.00;56587.81;5070872;28;20062;-59
2022/03/26 01:21:24;;;;;;;33.20;22.83;;;;;;;-148.33;100.00;56587.81;5070450;28;20039;-59
2022/03/26 01:23:49;;;;;;;34.08;24.08;;;;;;;-148.33;100.00;56587.81;5069986;28;20056;-57
2022/03/26 01:26:15;;;;;;;31.48;22.90;;;;;;;-148.33;100.00;56587.81;5070249;28;20022;-59
2022/03/26 01:28:41;;;;;;;30.53;22.37;;;;;;;-148.33;100.00;56587.81;5070229;28;20496;-59
2022/03/26 01:31:07;;;;;;;29.30;22.70;;;;;;;-148.33;100.00;56587.81;5070101;28;20119;-59
2022/03/26 01:33:32;;;;;;;33.00;23.75;;;;;;;-148.33;100.00;56587.81;5069984;28;20380;-59
2022/03/26 01:35:57;;;;;;;30.30;22.73;;;;;;;-148.33;100.00;56587.81;5070268;28;20021;-59
2022/03/26 01:38:22;;;;;;;30.07;23.17;;;;;;;-148.33;100.00;56587.81;5069531;28;20070;-59
2022/03/26 01:40:48;;;;;;;27.97;21.50;;;;;;;-148.33;100.00;56587.81;5069923;28;20032;-57
2022/03/26 01:43:13;;;;;;;31.20;23.33;;;;;;;-148.33;100.00;56587.81;5070341;28;20029;-59
2022/03/26 01:45:38;;;;;;;35.17;22.57;;;;;;;-148.33;100.00;56587.81;5069914;28;20074;-59
2022/03/26 01:48:04;;;;;;;35.27;23.70;;;;;;;-148.33;100.00;56587.81;5070074;28;20017;-60
2022/03/26 01:50:30;;;;;;;33.40;23.80;;;;;;;-148.33;100.00;56587.81;5069901;28;20472;-59
2022/03/26 01:52:57;;;;;;;30.03;23.23;;;;;;;-148.33;100.00;56587.81;5069483;28;20024;-59
2022/03/26 01:55:24;;;;;;;34.30;23.87;;;;;;;-148.33;100.00;56587.81;5069427;28;20063;-58
2022/03/26 01:57:49;;;;;;;30.03;21.73;;;;;;;-148.33;100.00;56587.81;5057737;28;20655;-57
2022/03/26 02:00:15;;;;;;;31.97;23.87;;;;;;;-148.33;100.00;56587.81;5048724;28;20120;-59
2022/03/26 02:02:43;;;;;;;32.30;24.10;;;;;;;-148.33;100.00;56587.81;5049836;28;20115;-59
2022/03/26 02:05:12;;;;;;;32.73;24.13;;;;;;;-148.33;100.00;56587.81;5049659;28;20484;-59
2022/03/26 02:07:39;;;;;;;34.53;24.27;;;;;;;-148.33;100.00;56587.81;5031264;28;20290;-59
2022/03/26 02:10:08;;;;;;;34.13;23.90;;;;;;;-148.33;100.00;56587.81;5049426;28;20505;-59
2022/03/26 02:12:33;;;;;;;34.13;24.77;;;;;;;-148.33;100.00;56587.81;5049541;28;20522;-56
2022/03/26 02:14:59;;;;;;;33.17;23.83;;;;;;;-148.33;100.00;56587.81;5048489;28;20469;-58
2022/03/26 02:17:25;;;;;;;34.23;24.73;;;;;;;-148.33;100.00;56587.81;5047998;28;20052;-59
2022/03/26 02:19:55;;;;;;;38.70;25.10;;;;;;;-148.33;100.00;56587.81;5049680;28;20960;-58
2022/03/26 02:22:25;;;;;;;35.43;24.93;;;;;;;-148.33;100.00;56587.81;5049286;28;20036;-59
2022/03/26 02:24:51;;;;;;;40.00;26.57;;;;;;;-148.33;100.00;56587.81;5049151;28;20032;-59
2022/03/26 02:27:17;;;;;;;33.27;25.17;;;;;;;-148.33;100.00;56587.81;5048612;28;20604;-59
2022/03/26 02:29:42;;;;;;;31.10;23.40;;;;;;;-148.33;100.00;56587.81;5049281;28;20100;-59
2022/03/26 02:32:08;;;;;;;36.53;24.40;;;;;;;-148.33;100.00;56587.81;5048829;28;20477;-58
2022/03/26 02:34:33;;;;;;;35.03;23.30;;;;;;;-148.33;100.00;56587.81;5048597;28;20143;-58
2022/03/26 02:36:59;;;;;;;30.47;24.43;;;;;;;-148.33;100.00;56587.81;5048927;28;20029;-57
2022/03/26 02:39:25;;;;;;;33.10;24.70;;;;;;;-148.33;100.00;56587.81;5048710;28;20028;-58
2022/03/26 02:41:51;;;;;;;33.33;24.03;;;;;;;-148.33;100.00;56587.81;5048541;28;20036;-58
2022/03/26 02:44:17;;;;;;;31.03;24.17;;;;;;;-148.33;100.00;56587.81;5049312;28;20021;-59
2022/03/26 02:46:45;;;;;;;35.00;24.13;;;;;;;-148.33;100.00;56587.81;5049052;28;20085;-58
2022/03/26 02:49:11;;;;;;;35.93;24.87;;;;;;;-148.33;100.00;56587.81;5049194;28;20033;-58
2022/03/26 02:51:37;;;;;;;31.70;24.53;;;;;;;-148.33;100.00;56587.81;5048903;28;20027;-59
2022/03/26 02:54:02;;;;;;;36.30;25.37;;;;;;;-148.33;100.00;56587.81;5048248;28;20029;-58
2022/03/26 02:56:27;;;;;;;35.47;24.30;;;;;;;-148.33;100.00;56587.81;5048394;28;20037;-59
2022/03/26 02:58:52;;;;;;;32.13;23.60;;;;;;;-148.33;100.00;56587.81;5048568;28;20652;-59
2022/03/26 03:01:19;;;;;;;31.83;24.07;;;;;;;-148.33;100.00;56587.81;5048121;28;20048;-60
2022/03/26 03:03:44;;;;;;;33.50;24.57;;;;;;;-148.33;100.00;56587.81;5048355;28;20381;-59
2022/03/26 03:06:10;;;;;;;32.60;23.73;;;;;;;-148.33;100.00;56587.81;5049014;28;20021;-59
2022/03/26 03:08:35;;;;;;;33.87;23.90;;;;;;;-148.33;100.00;56587.81;5048428;28;20028;-59
2022/03/26 03:11:00;;;;;;;34.13;24.17;;;;;;;-148.33;100.00;56587.81;5048093;28;20384;-59
2022/03/26 03:13:26;;;;;;;37.07;24.30;;;;;;;-148.33;100.00;56587.81;5047959;28;20033;-58
2022/03/26 03:15:52;;;;;;;31.90;24.07;;;;;;;-148.33;100.00;56587.81;5048752;28;20025;-59
2022/03/26 03:18:18;;;;;;;34.40;24.73;;;;;;;-148.33;100.00;56587.81;5047964;28;20021;-59
2022/03/26 03:20:44;;;;;;;30.47;23.33;;;;;;;-148.33;100.00;56587.81;5048386;28;20020;-59
2022/03/26 03:23:09;;;;;;;33.73;24.00;;;;;;;-148.33;100.00;56587.81;5047709;28;20064;-59
2022/03/26 03:25:34;;;;;;;32.37;22.97;;;;;;;-148.33;100.00;56587.81;5047699;28;20075;-59
2022/03/26 03:28:00;;;;;;;34.47;23.83;;;;;;;-148.33;100.00;56587.81;5047452;28;20720;-58
2022/03/26 03:30:26;;;;;;;34.53;24.10;;;;;;;-148.33;100.00;56587.81;5048353;28;20036;-58
2022/03/26 03:32:53;;;;;;;32.23;23.40;;;;;;;-148.33;100.00;56587.81;5047405;28;20432;-59
2022/03/26 03:35:18;;;;;;;34.00;24.47;;;;;;;-148.33;100.00;56587.81;5047443;28;20029;-58
2022/03/26 03:37:44;;;;;;;34.00;23.77;;;;;;;-148.33;100.00;56587.81;5048646;28;20033;-59
2022/03/26 03:40:10;;;;;;;30.57;23.47;;;;;;;-148.33;100.00;56587.81;5047564;28;20119;-59
2022/03/26 03:42:35;;;;;;;33.70;24.00;;;;;;;-148.33;100.00;56587.81;5047918;28;20165;-60
2022/03/26 03:45:04;;;;;;;33.23;23.27;;;;;;;-148.33;100.00;56587.81;5063019;28;20479;-60
2022/03/26 03:47:29;;;;;;;33.93;24.70;;;;;;;-148.33;100.00;56587.81;5068304;28;20372;-59
2022/03/26 03:49:55;;;;;;;33.83;24.53;;;;;;;-148.33;100.00;56587.81;5067739;28;20117;-59
2022/03/26 03:52:20;;;;;;;34.23;23.83;;;;;;;-148.33;100.00;56587.81;5067979;28;20078;-59
2022/03/26 03:54:46;;;;;;;31.33;23.03;;;;;;;-148.33;100.00;56587.81;5067393;28;20017;-59
2022/03/26 03:57:11;;;;;;;34.20;24.40;;;;;;;-148.33;100.00;56587.81;5067445;28;20585;-57
2022/03/26 03:59:40;;;;;;;35.17;24.20;;;;;;;-148.33;100.00;56587.81;5067647;28;20111;-59
2022/03/26 04:02:09;;;;;;;33.43;23.60;;;;;;;-148.33;100.00;56587.81;5067624;28;20023;-60
2022/03/26 04:04:42;;;;;;;30.97;23.47;;;;;;;-148.33;100.00;56587.81;5067593;28;20039;-59
2022/03/26 04:07:08;;;;;;;34.80;24.17;;;;;;;-148.33;100.00;56587.81;5067885;28;20365;-60
2022/03/26 04:09:35;;;;;;;33.90;24.17;;;;;;;-148.33;100.00;56587.81;5067190;28;20407;-59
2022/03/26 04:12:01;;;;;;;37.53;26.33;;;;;;;-148.33;100.00;56587.81;5067317;28;20028;-59
2022/03/26 04:14:26;;;;;;;33.27;24.40;;;;;;;-148.33;100.00;56587.81;5067520;28;20035;-59
2022/03/26 04:16:52;;;;;;;34.10;23.97;;;;;;;-148.33;100.00;56587.81;5067879;28;20021;-58
2022/03/26 04:19:18;;;;;;;33.77;23.63;;;;;;;-148.33;100.00;56587.81;5067737;28;20035;-58
2022/03/26 04:21:44;;;;;;;34.67;24.17;;;;;;;-148.33;100.00;56587.81;5066785;28;20017;-58
2022/03/26 04:24:09;;;;;;;35.23;24.80;;;;;;;-148.33;100.00;56587.81;5067234;28;20035;-58
2022/03/26 04:26:35;;;;;;;32.10;22.87;;;;;;;-148.33;100.00;56587.81;5067667;28;20023;-58
2022/03/26 04:29:01;;;;;;;33.73;23.63;;;;;;;-148.33;100.00;56587.81;5067540;28;20029;-59
2022/03/26 04:31:26;;;;;;;33.37;24.77;;;;;;;-148.33;100.00;56587.81;5067010;28;20489;-60
2022/03/26 04:33:52;;;;;;;37.57;24.07;;;;;;;-148.33;100.00;56587.81;5067609;28;20025;-57
2022/03/26 04:36:17;;;;;;;37.67;24.30;;;;;;;-148.33;100.00;56587.81;5067107;28;20103;-57
2022/03/26 04:38:42;;;;;;;31.63;24.37;;;;;;;-148.33;100.00;56587.81;5067165;28;20116;-57
2022/03/26 04:41:08;;;;;;;32.37;23.17;;;;;;;-148.33;100.00;56587.81;5070806;28;20377;-57
2022/03/26 04:43:33;;;;;;;35.53;25.20;;;;;;;-148.33;100.00;56587.81;5070789;28;20131;-60
2022/03/26 04:45:59;;;;;;;31.83;22.53;;;;;;;-148.33;100.00;56587.81;5070891;28;20020;-57
2022/03/26 04:48:24;;;;;;;33.97;23.67;;;;;;;-148.33;100.00;56587.81;5070457;28;20516;-59
2022/03/26 04:50:49;;;;;;;32.37;23.17;;;;;;;-148.33;100.00;56587.81;5070972;28;20226;-57
2022/03/26 04:53:15;;;;;;;30.73;22.67;;;;;;;-148.33;100.00;56587.81;5070411;28;20017;-58
2022/03/26 04:55:40;;;;;;;30.23;23.50;;;;;;;-148.33;100.00;56587.81;5070376;28;20040;-57
2022/03/26 04:58:05;;;;;;;34.47;24.37;;;;;;;-148.33;100.00;56587.81;5070811;28;20043;-58
2022/03/26 05:00:31;;;;;;;34.97;23.57;;;;;;;-148.33;100.00;56587.81;5070622;28;20135;-58
2022/03/26 05:02:57;;;;;;;30.33;23.93;;;;;;;-148.33;100.00;56587.81;5070653;28;20377;-58
2022/03/26 05:05:22;;;;;;;33.47;23.87;;;;;;;-148.33;100.00;56587.81;5070897;28;20032;-58
2022/03/26 05:07:47;;;;;;;38.20;23.60;;;;;;;-148.33;100.00;56587.81;5069674;28;20125;-58
2022/03/26 05:10:19;;;;;;;28.03;22.07;;;;;;;-148.33;100.00;56587.81;5069782;28;20047;-58
2022/03/26 05:12:46;;;;;;;26.03;20.33;;;;;;;-148.33;100.00;56587.81;5070590;28;20122;-58
2022/03/26 05:15:13;;;;;;;30.33;20.83;;;;;;;-148.33;100.00;56587.81;5069833;28;20032;-57
2022/03/26 05:17:38;;;;;;;30.47;22.43;;;;;;;-148.33;100.00;56587.81;5068841;28;20032;-58
2022/03/26 05:20:05;;;;;;;32.33;23.50;;;;;;;-148.33;100.00;56587.81;5068489;28;20028;-57
2022/03/26 05:22:31;;;;;;;29.67;21.10;;;;;;;-148.33;100.00;56587.81;5068287;28;20174;-58
2022/03/26 05:24:57;;;;;;;36.03;23.00;;;;;;;-148.33;100.00;56587.81;5068297;28;20595;-57
2022/03/26 05:27:22;;;;;;;34.70;23.23;;;;;;;-148.33;100.00;56587.81;5065356;28;20318;-58
2022/03/26 05:29:49;;;;;;;31.70;22.37;;;;;;;-148.33;100.00;56587.81;5067089;28;20029;-59
2022/03/26 05:32:15;;;;;;;30.07;22.67;;;;;;;-148.33;100.00;56587.81;5070738;28;20432;-58
2022/03/26 05:34:40;;;;;;;31.80;22.80;;;;;;;-148.33;100.00;56587.81;5070541;28;20031;-59
2022/03/26 05:37:06;;;;;;;30.50;22.67;;;;;;;-148.33;100.00;56587.81;5051793;28;20021;-58
2022/03/26 05:39:32;;;;;;;34.50;23.57;;;;;;;-148.33;100.00;56587.81;5063694;28;20035;-58
2022/03/26 05:41:57;;;;;;;32.63;22.20;;;;;;;-148.33;100.00;56587.81;5054161;28;20025;-59
2022/03/26 05:44:22;;;;;;;34.13;22.77;;;;;;;-148.33;100.00;56587.81;5053883;28;20103;-59
2022/03/26 05:46:48;;;;;;;34.87;24.07;;;;;;;-148.33;100.00;56587.81;5049808;28;20100;-59
2022/03/26 05:49:13;;;;;;;30.17;23.57;;;;;;;-148.33;100.00;56587.81;5049726;28;20122;-60
2022/03/26 05:51:38;;;;;;;35.33;24.07;;;;;;;-148.33;100.00;56587.81;5049257;28;20104;-59
2022/03/26 05:54:04;;;;;;;32.03;23.13;;;;;;;-148.33;100.00;56587.81;5031745;28;20051;-58
2022/03/26 05:56:30;;;;;;;31.20;22.67;;;;;;;-148.33;100.00;56587.81;5050070;28;20331;-58
2022/03/26 05:58:55;;;;;;;38.20;24.37;;;;;;;-148.33;100.00;56587.81;5049659;28;20025;-57
2022/03/26 06:01:22;;;;;;;37.10;24.27;;;;;;;-148.33;100.00;56587.81;5049490;28;20063;-58
2022/03/26 06:03:47;;;;;;;37.00;24.50;;;;;;;-148.33;100.00;56587.81;5049197;28;20389;-58
2022/03/26 06:06:12;;;;;;;34.33;23.60;;;;;;;-148.33;100.00;56587.81;5050051;28;20549;-58
2022/03/26 06:08:38;;;;;;;34.97;24.30;;;;;;;-148.33;100.00;56587.81;5049308;28;20024;-58
2022/03/26 06:11:03;;;;;;;33.87;23.67;;;;;;;-148.33;100.00;56587.81;5049908;28;20045;-57
2022/03/26 06:13:28;;;;;;;33.87;24.10;;;;;;;-148.33;100.00;56587.81;5048650;28;20033;-57
2022/03/26 06:15:53;;;;;;;31.07;23.23;;;;;;;-148.33;100.00;56587.81;5047039;28;20021;-58
2022/03/26 06:18:19;;;;;;;38.20;25.37;;;;;;;-148.33;100.00;56587.81;5061291;28;20033;-59
2022/03/26 06:20:44;;;;;;;38.90;24.70;;;;;;;-148.33;100.00;56587.81;5048317;28;20021;-59
2022/03/26 06:23:10;;;;;;;34.33;24.50;;;;;;;-148.33;100.00;56587.81;5030310;28;20017;-59
2022/03/26 06:25:36;;;;;;;36.00;24.00;;;;;;;-148.33;100.00;56587.81;5048561;28;20052;-57
2022/03/26 06:28:01;;;;;;;36.03;25.53;;;;;;;-148.33;100.00;56587.81;5047865;28;20024;-59
2022/03/26 06:30:26;;;;;;;40.63;26.77;;;;;;;-148.33;100.00;56587.81;5047949;28;20052;-58
2022/03/26 06:32:52;;;;;;;37.63;25.73;;;;;;;-148.33;100.00;56587.81;5048502;28;20025;-59
2022/03/26 06:35:18;;;;;;;34.37;24.47;;;;;;;-148.33;100.00;56587.81;5048156;28;20148;-59
2022/03/26 06:37:43;;;;;;;36.20;25.63;;;;;;;-148.33;100.00;56587.81;5048317;28;20029;-59
2022/03/26 06:40:09;;;;;;;35.03;24.17;;;;;;;-148.33;100.00;56587.81;5048376;28;20025;-59
2022/03/26 06:42:35;;;;;;;32.47;23.90;;;;;;;-148.33;100.00;56587.81;5048048;28;20439;-58
2022/03/26 06:45:00;;;;;;;32.40;24.17;;;;;;;-148.33;100.00;56587.81;5047744;28;20039;-59
2022/03/26 06:47:26;;;;;;;34.30;24.37;;;;;;;-148.33;100.00;56587.81;5048023;28;20037;-59
2022/03/26 06:49:52;;;;;;;37.23;25.60;;;;;;;-148.33;100.00;56587.81;5048409;28;20569;-60
2022/03/26 06:52:18;;;;;;;39.83;25.02;;;;;;;-148.33;100.00;56587.81;5050880;28;20535;-59
2022/03/26 06:54:43;;;;;;;32.92;23.85;;;;;;;-148.33;100.00;56587.81;5048325;28;20028;-57
2022/03/26 06:57:08;;;;;;;34.78;23.33;;;;;;;-148.33;100.00;56587.81;5047869;28;20033;-57
2022/03/26 06:59:33;;;;;;;39.20;22.88;;;;;;;-148.33;100.00;56587.81;5048612;28;20128;-59
2022/03/26 07:01:59;;;;;;;30.88;22.67;;;;;;;-148.33;100.00;56587.81;5046771;28;20079;-59
2022/03/26 07:04:24;;;;;;;31.70;22.50;;;;;;;-148.33;100.00;56587.81;5047657;28;20471;-58
2022/03/26 07:06:49;;;;;;;32.53;23.40;;;;;;;-148.33;100.00;56587.81;5047657;28;20082;-58
2022/03/26 07:09:14;;;;;;;29.95;24.33;;;;;;;-148.33;100.00;56587.81;5050641;28;20481;-59
2022/03/26 07:11:40;;;;;;;32.15;23.33;;;;;;;-148.33;100.00;56587.81;5047855;28;20443;-58
2022/03/26 07:14:05;;;;;;;30.85;22.67;;;;;;;-148.33;100.00;56587.81;5048085;28;20222;-57
2022/03/26 07:16:30;;;;;;;33.85;22.80;;;;;;;-148.33;100.00;56587.81;5047866;28;20068;-59
2022/03/26 07:18:55;;;;;;;34.42;24.13;;;;;;;-148.33;100.00;56587.81;5053342;28;20028;-59
2022/03/26 07:21:21;;;;;;;33.00;24.02;;;;;;;-148.33;100.00;56587.81;5047500;28;20260;-59
2022/03/26 07:23:46;;;;;;;35.47;22.92;;;;;;;-148.33;100.00;56587.81;5047468;28;20078;-57
2022/03/26 07:26:11;;;;;;;37.67;24.45;;;;;;;-148.33;100.00;56587.81;5046822;28;20100;-58
2022/03/26 07:28:37;;;;;;;32.58;23.65;;;;;;;-148.33;100.00;56587.81;5056268;28;20040;-58
2022/03/26 07:31:02;;;;;;;32.55;23.95;;;;;;;-148.33;100.00;56587.81;5053521;28;20075;-60
2022/03/26 07:33:27;;;;;;;35.80;24.58;;;;;;;-148.33;100.00;56587.81;5047095;28;20056;-59
2022/03/26 07:35:53;;;;;;;32.30;24.08;;;;;;;-148.33;100.00;56587.81;5048654;28;20067;-58
2022/03/26 07:38:18;;;;;;;30.35;24.23;;;;;;;-148.33;100.00;56587.81;5047015;28;20408;-57
2022/03/26 07:40:44;;;;;;;30.73;22.35;;;;;;;-148.33;100.00;56587.81;5046856;28;20098;-59
2022/03/26 07:43:09;;;;;;;32.38;23.02;;;;;;;-148.33;100.00;56587.81;5045850;28;20025;-59
2022/03/26 07:45:35;;;;;;;30.75;23.73;;;;;;;-148.33;100.00;56587.81;5046651;28;20027;-58
2022/03/26 07:48:00;;;;;;;31.10;22.55;;;;;;;-148.33;100.00;56587.81;5049404;28;20535;-59
2022/03/26 07:50:26;;;;;;;34.80;23.80;;;;;;;-148.33;100.00;56587.81;5047549;28;20358;-59
2022/03/26 07:52:51;;;;;;;28.17;21.83;;;;;;;-148.33;100.00;56587.81;5047466;28;20029;-59
2022/03/26 07:55:17;;;;;;;29.48;23.88;;;;;;;-148.33;100.00;56587.81;5046378;28;20057;-59
2022/03/26 07:57:42;;;;;;;30.95;23.88;;;;;;;-148.33;100.00;56587.81;5047579;28;20029;-58
2022/03/26 08:00:09;;;;;;;33.53;23.67;;;;;;;-148.33;100.00;56587.81;5047111;28;20412;-58
2022/03/26 08:02:34;;;;;;;31.20;23.58;;;;;;;-148.33;100.00;56587.81;5047506;28;20037;-59
2022/03/26 08:05:00;;;;;;;30.98;22.23;;;;;;;-148.33;100.00;56587.81;5046319;28;20036;-59
2022/03/26 08:07:25;;;;;;;33.97;23.83;;;;;;;-148.33;100.00;56587.81;5047397;28;20036;-60
2022/03/26 08:09:51;;;;;;;28.98;23.50;;;;;;;-148.33;100.00;56587.81;5046661;28;20031;-59
2022/03/26 08:12:16;;;;;;;31.23;23.30;;;;;;;-148.33;100.00;56587.81;5047355;28;20032;-59
2022/03/26 08:14:42;;;;;;;35.33;24.67;;;;;;;-148.33;100.00;56587.81;5049921;28;20021;-57
2022/03/26 08:17:07;;;;;;;27.63;23.23;;;;;;;-148.33;100.00;56587.81;5050137;28;20033;-59
2022/03/26 08:19:34;;;;;;;31.35;23.27;;;;;;;-148.33;100.00;56587.81;5050820;28;20032;-59
2022/03/26 08:22:00;;;;;;;31.10;24.80;;;;;;;-148.33;100.00;56587.81;5050826;28;20020;-59
2022/03/26 08:24:26;;;;;;;28.40;24.10;;;;;;;-148.33;100.00;56587.81;5051197;28;20339;-60
2022/03/26 08:26:52;;;;;;;26.42;23.10;;;;;;;-148.33;100.00;56587.81;5050727;28;20067;-60
2022/03/26 08:29:17;;;;;;;31.70;24.00;;;;;;;-148.33;100.00;56587.81;5050926;28;20106;-60
2022/03/26 08:31:42;;;;;;;27.52;23.15;;;;;;;-148.33;100.00;56587.81;5055836;28;20021;-60
2022/03/26 08:34:08;;;;;;;32.75;22.67;;;;;;;-148.33;100.00;56587.81;5050459;28;20021;-60
2022/03/26 08:36:35;;;;;;;32.03;23.75;;;;;;;-148.33;100.00;56587.81;5050866;28;20031;-60
2022/03/26 08:39:00;;;;;;;31.20;23.15;;;;;;;-148.33;100.00;56587.81;5050330;28;20036;-60
2022/03/26 08:41:26;;;;;;;32.47;23.67;;;;;;;-148.33;100.00;56587.81;5050737;28;20093;-61
2022/03/26 08:43:51;;;;;;;26.60;22.50;;;;;;;-148.33;100.00;56587.81;5055700;28;20055;-60
2022/03/26 08:46:19;;;;;;;28.10;23.60;;;;;;;-148.33;100.00;56587.81;5049944;28;20025;-60
2022/03/26 08:48:45;;;;;;;30.25;22.25;;;;;;;-148.33;100.00;56587.81;5052882;28;20040;-60
2022/03/26 08:51:10;;;;;;;27.92;22.55;;;;;;;-148.33;100.00;56587.81;5050455;28;20021;-60
2022/03/26 08:53:35;;;;;;;29.10;21.98;;;;;;;-148.33;100.00;56587.81;5050179;28;20021;-60
2022/03/26 08:56:01;;;;;;;26.17;22.02;;;;;;;-148.33;100.00;56587.81;5050774;28;20029;-60
2022/03/26 08:58:26;;;;;;;31.38;22.55;;;;;;;-148.33;100.00;56587.81;5050199;28;20036;-61
2022/03/26 09:00:52;;;;;;;27.10;20.77;;;;;;;-148.33;100.00;56587.81;5055196;28;20135;-61
2022/03/26 09:03:20;;;;;;;30.55;21.23;;;;;;;-148.33;100.00;56587.81;5050128;28;20028;-60
2022/03/26 09:05:47;;;;;;;36.35;21.02;;;;;;;-148.33;100.00;56587.81;5050279;28;20476;-60
2022/03/26 09:08:13;;;;;;;30.08;21.33;;;;;;;-148.33;100.00;56587.81;5048191;28;20039;-61
2022/03/26 09:10:38;;;;;;;30.38;21.98;;;;;;;-148.33;100.00;56587.81;5070163;28;20033;-61
2022/03/26 09:13:03;;;;;;;31.98;23.17;;;;;;;-148.33;100.00;56587.81;5069791;28;20048;-60
2022/03/26 09:15:28;;;;;;;33.33;20.83;;;;;;;-148.33;100.00;56587.81;5065284;28;20029;-61
2022/03/26 09:17:54;;;;;;;26.05;21.92;;;;;;;-148.33;100.00;56587.81;5061792;28;20127;-60
2022/03/26 09:20:19;;;;;;;25.00;20.52;;;;;;;-148.33;100.00;56587.81;5060887;28;20063;-60
2022/03/26 09:22:44;;;;;;;25.90;19.67;;;;;;;-148.33;100.00;56587.81;5069453;28;20454;-60
2022/03/26 09:25:10;;;;;;;27.77;19.92;;;;;;;-148.33;100.00;56587.81;5068698;28;20028;-59
2022/03/26 09:27:36;;;;;;;25.52;20.55;;;;;;;-148.33;100.00;56587.81;5054983;28;20299;-58
2022/03/26 09:30:02;;;;;;;28.55;21.13;;;;;;;-148.33;100.00;56587.81;5057013;28;20074;-59
2022/03/26 09:32:28;;;;;;;24.17;20.23;;;;;;;-148.33;100.00;56587.81;5065234;28;20118;-57
2022/03/26 09:34:53;;;;;;;26.13;20.88;;;;;;;-148.33;100.00;56587.81;5056482;28;20559;-60
2022/03/26 09:37:18;;;;;;;25.33;20.85;;;;;;;-148.33;100.00;56587.81;5050582;28;20144;-58
2022/03/26 09:39:44;;;;;;;26.35;21.60;;;;;;;-148.33;100.00;56587.81;5050330;28;20116;-59
2022/03/26 09:42:09;;;;;;;31.15;23.00;;;;;;;-148.33;100.00;56587.81;5049755;28;20021;-59
2022/03/26 09:44:35;;;;;;;33.22;22.92;;;;;;;-148.33;100.00;56587.81;5049571;28;20104;-59
2022/03/26 09:47:04;;;;;;;26.95;22.70;;;;;;;-148.33;100.00;56587.81;5061447;28;20029;-58
2022/03/26 09:49:29;;;;;;;33.33;22.02;;;;;;;-148.33;100.00;56587.81;5069124;28;20058;-58
2022/03/26 09:51:55;;;;;;;30.05;22.65;;;;;;;-148.33;100.00;56587.81;5069804;28;20028;-58
2022/03/26 09:54:22;;;;;;;31.48;22.48;;;;;;;-148.33;100.00;56587.81;5068897;28;20024;-58
2022/03/26 09:56:47;;;;;;;29.23;21.60;;;;;;;-148.33;100.00;56587.81;5069283;28;20029;-58
2022/03/26 09:59:13;;;;;;;28.58;21.05;;;;;;;-148.33;100.00;56587.81;5068888;28;20025;-58
2022/03/26 10:01:38;;;;;;;28.98;22.27;;;;;;;-148.33;100.00;56587.81;5069252;28;20067;-57
2022/03/26 10:04:10;;;;;;;30.95;22.48;;;;;;;-148.33;100.00;56587.81;5069093;28;20503;-58
2022/03/26 10:06:35;;;;;;;28.35;21.17;;;;;;;-148.33;100.00;56587.81;5069218;28;20024;-57
2022/03/26 10:09:01;;;;;;;28.08;21.27;;;;;;;-148.33;100.00;56587.81;5068405;28;20044;-58
2022/03/26 10:11:31;;;;;;;26.95;20.05;;;;;;;-148.33;100.00;56587.81;5069261;28;20066;-59
2022/03/26 10:13:56;;;;;;;36.83;22.03;;;;;;;-148.33;100.00;56587.81;5068641;28;20388;-57
2022/03/26 10:16:21;;;;;;;24.48;20.85;;;;;;;-148.33;100.00;56587.81;5053147;28;20295;-56
2022/03/26 10:18:48;;;;;;;23.52;18.92;;;;;;;-148.33;100.00;56587.81;5049705;28;20342;-58
2022/03/26 10:21:15;;;;;;;24.42;18.65;;;;;;;-148.33;100.00;56587.81;5049804;28;20377;-58
2022/03/26 10:23:48;;;;;;;21.25;17.58;;;;;;;-148.33;100.00;56587.81;5049758;28;20350;-58
2022/03/26 10:26:22;;;;;;;21.75;18.35;;;;;;;-148.33;100.00;56587.81;5049426;28;20422;-58
2022/03/26 10:28:51;;;;;;;21.98;15.13;;;;;;;-148.33;100.00;56587.81;5053711;28;20025;-58
2022/03/26 10:34:07;;;;;;;26.05;16.20;;;;;;;-148.33;100.00;56587.81;5068555;28;20127;-56
2022/03/26 10:36:43;;;;;;;23.95;14.90;;;;;;;-148.33;100.00;56587.81;5058094;28;20112;-57
2022/03/26 10:39:23;;;;;;;22.23;15.95;;;;;;;-148.33;100.00;56587.81;5051255;28;20056;-58
2022/03/26 10:41:50;;;;;;;23.40;15.70;;;;;;;-148.33;100.00;56587.81;5050972;28;20477;-58
2022/03/26 10:44:17;;;;;;;20.27;15.40;;;;;;;-148.33;100.00;56587.81;5059735;28;20104;-58
2022/03/26 10:46:50;;;;;;;20.58;15.05;;;;;;;-148.33;100.00;56587.81;5050901;28;20036;-58
2022/03/26 10:49:37;;;;;;;22.55;15.25;;;;;;;-148.33;100.00;56587.81;5056936;28;20028;-58
2022/03/26 10:52:12;;;;;;;23.00;15.73;;;;;;;-148.33;100.00;56587.81;5048280;28;20079;-58